createdAt,value
2019-03-21T00:00:29.131Z,82.35
2019-03-21T00:01:29.123Z,82.14
2019-03-21T00:02:29.117Z,82.24
2019-03-21T00:03:29.153Z,81.94
2019-03-21T00:04:29.095Z,81.94
2019-03-21T00:05:29.071Z,82.04
2019-03-21T00:06:29.099Z,81.73
2019-03-21T00:07:29.127Z,82.55
2019-03-21T00:08:29.057Z,82.14
2019-03-21T00:09:29.031Z,82.24
2019-03-21T00:10:29.015Z,82.55
2019-03-21T00:11:29.028Z,82.35
2019-03-21T00:12:29.009Z,81.73
2019-03-21T00:13:29.020Z,82.76
2019-03-21T00:14:29.021Z,81.84
2019-03-21T00:15:28.973Z,82.65
2019-03-21T00:16:29.037Z,82.24
2019-03-21T00:17:28.973Z,82.45
2019-03-21T00:18:28.962Z,82.14
2019-03-21T00:19:28.931Z,82.35
2019-03-21T00:20:28.944Z,82.14
2019-03-21T00:21:28.899Z,82.04
2019-03-21T00:22:28.894Z,82.55
2019-03-21T00:23:28.893Z,82.35
2019-03-21T00:24:28.871Z,82.86
2019-03-21T00:25:28.995Z,82.65
2019-03-21T00:26:31.248Z,82.65
2019-03-21T00:27:28.834Z,82.35
2019-03-21T00:28:28.844Z,82.45
2019-03-21T00:29:28.814Z,82.45
2019-03-21T00:30:28.810Z,82.35
2019-03-21T00:31:28.799Z,82.24
2019-03-21T00:32:28.851Z,82.04
2019-03-21T00:33:28.797Z,82.55
2019-03-21T00:34:28.766Z,81.84
2019-03-21T00:35:28.777Z,81.73
2019-03-21T00:36:28.741Z,82.04
2019-03-21T00:37:28.733Z,81.94
2019-03-21T00:38:28.768Z,81.94
2019-03-21T00:39:32.667Z,82.76
2019-03-21T00:40:28.696Z,82.45
2019-03-21T00:41:28.683Z,81.73
2019-03-21T00:42:28.694Z,82.55
2019-03-21T00:43:28.664Z,82.65
2019-03-21T00:44:28.674Z,82.65
2019-03-21T00:45:28.659Z,82.65
2019-03-21T00:46:28.645Z,82.35
2019-03-21T00:47:28.618Z,82.86
2019-03-21T00:48:28.630Z,82.96
2019-03-21T00:49:28.606Z,82.65
2019-03-21T00:50:28.598Z,82.55
2019-03-21T00:51:28.594Z,82.45
2019-03-21T00:52:28.571Z,82.76
2019-03-21T00:53:28.566Z,82.55
2019-03-21T00:54:28.563Z,82.55
2019-03-21T00:55:28.528Z,82.35
2019-03-21T00:56:28.528Z,82.45
2019-03-21T00:57:28.531Z,82.45
2019-03-21T00:58:28.563Z,82.55
2019-03-21T00:59:28.546Z,82.65
2019-03-21T01:00:28.487Z,82.35
2019-03-21T01:01:28.495Z,82.45
2019-03-21T01:02:28.516Z,82.35
2019-03-21T01:03:28.516Z,82.35
2019-03-21T01:04:28.476Z,82.86
2019-03-21T01:05:28.440Z,82.14
2019-03-21T01:06:28.436Z,81.84
2019-03-21T01:07:28.408Z,82.55
2019-03-21T01:08:28.409Z,82.96
2019-03-21T01:09:28.404Z,82.45
2019-03-21T01:10:28.378Z,82.76
2019-03-21T01:11:28.411Z,83.27
2019-03-21T01:12:28.376Z,83.58
2019-03-21T01:13:28.337Z,83.37
2019-03-21T01:14:29.951Z,83.17
2019-03-21T01:15:28.392Z,82.45
2019-03-21T01:16:28.313Z,83.27
2019-03-21T01:17:28.314Z,83.17
2019-03-21T01:18:28.287Z,82.55
2019-03-21T01:19:28.342Z,82.35
2019-03-21T01:20:28.273Z,82.45
2019-03-21T01:21:28.257Z,82.76
2019-03-21T01:22:28.253Z,83.47
2019-03-21T01:23:28.261Z,82.96
2019-03-21T01:24:28.271Z,83.47
2019-03-21T01:25:28.207Z,83.47
2019-03-21T01:26:28.205Z,82.24
2019-03-21T01:27:28.208Z,83.47
2019-03-21T01:28:28.197Z,82.96
2019-03-21T01:29:28.163Z,83.44
2019-03-21T01:30:28.169Z,83.27
2019-03-21T01:31:28.153Z,83.47
2019-03-21T01:32:28.133Z,83.06
2019-03-21T01:33:28.125Z,83.37
2019-03-21T01:34:28.170Z,83.17
2019-03-21T01:35:28.119Z,83.58
2019-03-21T01:36:28.087Z,83.68
2019-03-21T01:37:28.087Z,83.27
2019-03-21T01:38:28.108Z,83.37
2019-03-21T01:39:28.071Z,83.27
2019-03-21T01:40:28.076Z,83.58
2019-03-21T01:41:28.039Z,83.06
2019-03-21T01:42:28.021Z,83.37
2019-03-21T01:43:28.009Z,83.47
2019-03-21T01:44:28.049Z,83.58
2019-03-21T01:45:28.007Z,82.96
2019-03-21T01:46:28.017Z,83.37
2019-03-21T01:47:27.971Z,83.68
2019-03-21T01:48:28.049Z,83.27
2019-03-21T01:49:27.977Z,83.47
2019-03-21T01:50:27.954Z,83.37
2019-03-21T01:51:27.929Z,83.68
2019-03-21T01:52:27.921Z,83.06
2019-03-21T01:53:27.908Z,83.58
2019-03-21T01:54:27.967Z,83.37
2019-03-21T01:55:27.907Z,83.27
2019-03-21T01:56:27.876Z,83.37
2019-03-21T01:57:27.881Z,83.58
2019-03-21T01:58:27.879Z,82.96
2019-03-21T01:59:27.841Z,83.68
2019-03-21T02:00:27.867Z,83.47
2019-03-21T02:01:27.817Z,83.27
2019-03-21T02:02:27.806Z,83.27
2019-03-21T02:03:27.803Z,83.37
2019-03-21T02:04:27.795Z,83.17
2019-03-21T02:05:27.792Z,83.88
2019-03-21T02:06:27.824Z,83.47
2019-03-21T02:07:27.760Z,83.17
2019-03-21T02:08:27.756Z,83.37
2019-03-21T02:09:27.738Z,83.58
2019-03-21T02:10:27.732Z,83.58
2019-03-21T02:11:27.712Z,83.58
2019-03-21T02:12:27.696Z,83.37
2019-03-21T02:13:27.688Z,83.37
2019-03-21T02:14:27.690Z,83.68
2019-03-21T02:15:27.676Z,83.37
2019-03-21T02:16:27.656Z,83.78
2019-03-21T02:17:27.696Z,83.78
2019-03-21T02:18:27.636Z,83.06
2019-03-21T02:19:27.678Z,83.58
2019-03-21T02:20:27.656Z,83.58
2019-03-21T02:21:27.600Z,83.88
2019-03-21T02:22:27.594Z,83.31
2019-03-21T02:23:27.580Z,83.58
2019-03-21T02:24:27.586Z,83.88
2019-03-21T02:25:27.576Z,83.78
2019-03-21T02:26:27.560Z,83.68
2019-03-21T02:27:27.642Z,83.61
2019-03-21T02:28:27.524Z,83.47
2019-03-21T02:29:27.521Z,83.51
2019-03-21T02:30:27.513Z,83.47
2019-03-21T02:31:27.522Z,83.17
2019-03-21T02:32:27.491Z,83.78
2019-03-21T02:33:27.483Z,84.33
2019-03-21T02:34:27.485Z,83.78
2019-03-21T02:35:30.812Z,83.78
2019-03-21T02:36:27.482Z,83.68
2019-03-21T02:37:27.451Z,83.61
2019-03-21T02:38:27.425Z,83.37
2019-03-21T02:39:27.421Z,83.58
2019-03-21T02:40:27.404Z,83.78
2019-03-21T02:41:27.404Z,84.03
2019-03-21T02:42:27.411Z,83.31
2019-03-21T02:43:27.365Z,84.03
2019-03-21T02:44:27.356Z,83.82
2019-03-21T02:45:27.341Z,83.51
2019-03-21T02:46:27.346Z,83.41
2019-03-21T02:47:27.324Z,84.29
2019-03-21T02:48:27.319Z,83.47
2019-03-21T02:49:27.310Z,84.12
2019-03-21T02:50:27.286Z,84.03
2019-03-21T02:51:27.300Z,84.12
2019-03-21T02:52:27.272Z,83.98
2019-03-21T02:53:27.259Z,84.12
2019-03-21T02:54:27.271Z,84.12
2019-03-21T02:55:27.242Z,84.23
2019-03-21T02:56:27.253Z,83.92
2019-03-21T02:57:27.219Z,84.44
2019-03-21T02:58:27.221Z,84.12
2019-03-21T02:59:27.245Z,84.23
2019-03-21T03:00:27.188Z,84.23
2019-03-21T03:01:27.218Z,84.23
2019-03-21T03:02:27.212Z,84.23
2019-03-21T03:03:27.153Z,84.03
2019-03-21T03:04:27.147Z,84.12
2019-03-21T03:05:27.134Z,83.61
2019-03-21T03:06:27.159Z,83.82
2019-03-21T03:07:27.115Z,84.23
2019-03-21T03:08:27.121Z,83.41
2019-03-21T03:09:27.110Z,83.72
2019-03-21T03:10:27.075Z,84.19
2019-03-21T03:11:27.070Z,83.72
2019-03-21T03:12:27.074Z,83.31
2019-03-21T03:13:27.051Z,83.82
2019-03-21T03:14:27.041Z,83.78
2019-03-21T03:15:27.054Z,83.61
2019-03-21T03:16:27.011Z,84.03
2019-03-21T03:17:27.023Z,83.72
2019-03-21T03:18:26.995Z,83.92
2019-03-21T03:19:26.978Z,83.61
2019-03-21T03:20:26.972Z,83.61
2019-03-21T03:21:26.994Z,84.03
2019-03-21T03:22:26.977Z,83.98
2019-03-21T03:23:26.934Z,83.51
2019-03-21T03:24:26.944Z,83.58
2019-03-21T03:25:26.913Z,83.78
2019-03-21T03:26:26.902Z,83.78
2019-03-21T03:27:26.944Z,83.88
2019-03-21T03:28:26.884Z,83.06
2019-03-21T03:29:26.879Z,83.68
2019-03-21T03:30:26.870Z,83.68
2019-03-21T03:31:26.879Z,83.58
2019-03-21T03:32:26.865Z,83.98
2019-03-21T03:33:26.849Z,83.37
2019-03-21T03:34:26.825Z,83.61
2019-03-21T03:35:26.826Z,83.68
2019-03-21T03:36:26.815Z,83.37
2019-03-21T03:37:26.800Z,83.61
2019-03-21T03:38:26.772Z,83.88
2019-03-21T03:39:26.767Z,83.58
2019-03-21T03:40:26.757Z,83.92
2019-03-21T03:41:26.747Z,83.78
2019-03-21T03:42:26.808Z,83.61
2019-03-21T03:43:26.746Z,83.58
2019-03-21T03:44:26.721Z,83.72
2019-03-21T03:45:37.290Z,83.78
2019-03-21T03:46:27.705Z,83.78
2019-03-21T03:47:26.722Z,83.27
2019-03-21T03:48:26.690Z,83.47
2019-03-21T03:49:26.658Z,83.82
2019-03-21T03:50:26.653Z,83.58
2019-03-21T03:51:26.644Z,83.68
2019-03-21T03:52:26.666Z,83.06
2019-03-21T03:53:26.630Z,83.58
2019-03-21T03:54:26.608Z,83.17
2019-03-21T03:55:26.598Z,83.68
2019-03-21T03:56:26.590Z,83.58
2019-03-21T03:57:26.573Z,83.27
2019-03-21T03:58:26.586Z,83.68
2019-03-21T03:59:26.549Z,83.47
2019-03-21T04:00:26.616Z,83.68
2019-03-21T04:01:26.534Z,83.47
2019-03-21T04:02:26.518Z,83.17
2019-03-21T04:03:26.588Z,83.78
2019-03-21T04:04:26.495Z,83.06
2019-03-21T04:05:26.500Z,83.37
2019-03-21T04:06:26.499Z,83.78
2019-03-21T04:07:26.472Z,83.68
2019-03-21T04:08:26.473Z,83.27
2019-03-21T04:09:26.452Z,83.78
2019-03-21T04:10:26.435Z,83.47
2019-03-21T04:11:26.428Z,83.27
2019-03-21T04:12:26.455Z,83.58
2019-03-21T04:13:26.422Z,83.58
2019-03-21T04:14:26.403Z,83.37
2019-03-21T04:15:26.382Z,83.37
2019-03-21T04:16:26.383Z,83.27
2019-03-21T04:17:26.362Z,83.17
2019-03-21T04:18:26.380Z,83.17
2019-03-21T04:19:26.349Z,83.27
2019-03-21T04:20:26.339Z,83.37
2019-03-21T04:21:26.313Z,83.47
2019-03-21T04:22:26.306Z,83.47
2019-03-21T04:23:26.313Z,83.58
2019-03-21T04:24:26.292Z,83.68
2019-03-21T04:25:26.288Z,83.17
2019-03-21T04:26:26.280Z,83.58
2019-03-21T04:27:26.257Z,82.96
2019-03-21T04:28:26.250Z,83.68
2019-03-21T04:29:26.237Z,83.17
2019-03-21T04:30:26.217Z,83.27
2019-03-21T04:31:26.218Z,83.27
2019-03-21T04:32:26.204Z,82.96
2019-03-21T04:33:26.217Z,83.17
2019-03-21T04:34:26.181Z,83.17
2019-03-21T04:35:26.167Z,82.96
2019-03-21T04:36:26.151Z,83.17
2019-03-21T04:37:26.176Z,83.47
2019-03-21T04:38:26.133Z,83.06
2019-03-21T04:39:26.135Z,83.37
2019-03-21T04:40:26.111Z,83.17
2019-03-21T04:41:26.109Z,83.37
2019-03-21T04:42:26.088Z,83.27
2019-03-21T04:43:26.087Z,83.27
2019-03-21T04:44:26.098Z,83.27
2019-03-21T04:45:26.065Z,83.27
2019-03-21T04:46:26.046Z,83.17
2019-03-21T04:47:26.039Z,83.37
2019-03-21T04:48:26.022Z,82.55
2019-03-21T04:49:26.027Z,83.37
2019-03-21T04:50:26.044Z,83.06
2019-03-21T04:51:26.001Z,83.06
2019-03-21T04:52:26.041Z,83.06
2019-03-21T04:53:26.002Z,83.17
2019-03-21T04:54:25.975Z,83.17
2019-03-21T04:55:25.956Z,83.06
2019-03-21T04:56:25.943Z,83.47
2019-03-21T04:57:25.954Z,82.96
2019-03-21T04:58:25.921Z,83.68
2019-03-21T04:59:25.925Z,83.17
2019-03-21T05:00:25.894Z,83.06
2019-03-21T05:01:25.890Z,83.06
2019-03-21T05:02:25.890Z,83.06
2019-03-21T05:03:25.902Z,83.58
2019-03-21T05:04:25.946Z,83.37
2019-03-21T05:05:25.846Z,83.27
2019-03-21T05:06:25.854Z,83.27
2019-03-21T05:07:25.821Z,82.96
2019-03-21T05:08:25.812Z,83.17
2019-03-21T05:09:25.809Z,83.27
2019-03-21T05:10:25.790Z,83.17
2019-03-21T05:11:25.809Z,83.17
2019-03-21T05:12:25.768Z,83.06
2019-03-21T05:13:25.752Z,83.27
2019-03-21T05:14:25.758Z,83.17
2019-03-21T05:15:25.734Z,83.06
2019-03-21T05:16:25.728Z,82.86
2019-03-21T05:17:25.732Z,83.06
2019-03-21T05:18:25.710Z,83.17
2019-03-21T05:19:25.704Z,83.06
2019-03-21T05:20:25.682Z,83.17
2019-03-21T05:21:25.671Z,83.06
2019-03-21T05:22:25.659Z,83.06
2019-03-21T05:23:25.662Z,83.17
2019-03-21T05:24:25.653Z,82.96
2019-03-21T05:25:25.629Z,83.06
2019-03-21T05:26:25.619Z,83.27
2019-03-21T05:27:25.607Z,83.58
2019-03-21T05:28:25.607Z,83.17
2019-03-21T05:29:25.620Z,83.37
2019-03-21T05:30:25.616Z,83.37
2019-03-21T05:31:25.568Z,83.27
2019-03-21T05:32:25.556Z,82.92
2019-03-21T05:33:25.537Z,83.37
2019-03-21T05:34:25.530Z,82.96
2019-03-21T05:35:25.533Z,83.27
2019-03-21T05:36:25.515Z,83.37
2019-03-21T05:37:25.521Z,83.03
2019-03-21T05:38:25.491Z,83.13
2019-03-21T05:39:25.484Z,83.03
2019-03-21T05:40:25.479Z,83.06
2019-03-21T05:41:25.459Z,83.23
2019-03-21T05:42:25.445Z,83.03
2019-03-21T05:43:25.459Z,83.23
2019-03-21T05:44:25.458Z,83.03
2019-03-21T05:45:25.427Z,83.03
2019-03-21T05:46:26.884Z,83.03
2019-03-21T05:47:25.413Z,82.71
2019-03-21T05:48:25.385Z,82.62
2019-03-21T05:49:25.379Z,82.62
2019-03-21T05:50:25.423Z,82.82
2019-03-21T05:51:25.369Z,82.51
2019-03-21T05:52:25.333Z,82.62
2019-03-21T05:53:25.325Z,82.51
2019-03-21T05:54:25.325Z,82.62
2019-03-21T05:55:26.789Z,82.21
2019-03-21T05:56:25.295Z,82.48
2019-03-21T05:57:25.293Z,82.07
2019-03-21T05:58:25.303Z,82.07
2019-03-21T05:59:25.262Z,82.48
2019-03-21T06:00:25.269Z,82.62
2019-03-21T06:01:25.255Z,82.17
2019-03-21T06:02:25.231Z,82.51
2019-03-21T06:03:25.227Z,82.41
2019-03-21T06:04:25.271Z,82.27
2019-03-21T06:05:25.214Z,81.90
2019-03-21T06:06:25.191Z,82.48
2019-03-21T06:07:25.191Z,82.27
2019-03-21T06:08:25.181Z,82.07
2019-03-21T06:09:25.155Z,81.15
2019-03-21T06:10:25.158Z,81.65
2019-03-21T06:11:25.162Z,81.96
2019-03-21T06:12:25.137Z,81.96
2019-03-21T06:13:25.114Z,81.65
2019-03-21T06:14:25.114Z,81.65
2019-03-21T06:15:25.106Z,81.31
2019-03-21T06:16:25.091Z,81.41
2019-03-21T06:22:13.388Z,81.01
2019-03-21T06:26:31.516Z,81.01
2019-03-21T06:27:14.474Z,80.80
2019-03-21T06:28:09.533Z,80.90
2019-03-21T06:29:08.426Z,81.21
2019-03-21T06:30:08.402Z,80.80
2019-03-21T06:31:08.414Z,80.69
2019-03-21T06:32:08.383Z,80.97
2019-03-21T06:33:08.384Z,80.90
2019-03-21T06:34:08.355Z,80.60
2019-03-21T06:35:08.348Z,79.94
2019-03-21T06:36:08.361Z,80.56
2019-03-21T06:37:08.326Z,79.64
2019-03-21T06:38:08.322Z,80.05
2019-03-21T06:39:08.302Z,79.94
2019-03-21T06:40:08.294Z,80.87
2019-03-21T06:41:08.292Z,80.25
2019-03-21T06:42:08.280Z,79.94
2019-03-21T06:43:08.288Z,79.94
2019-03-21T06:44:08.252Z,80.66
2019-03-21T06:45:08.240Z,80.66
2019-03-21T06:46:08.240Z,79.74
2019-03-21T06:47:08.218Z,79.91
2019-03-21T06:48:08.211Z,79.19
2019-03-21T06:49:08.195Z,79.09
2019-03-21T06:50:08.186Z,79.29
2019-03-21T06:51:08.180Z,78.58
2019-03-21T06:52:08.166Z,79.19
2019-03-21T06:53:08.151Z,79.39
2019-03-21T06:54:08.143Z,79.50
2019-03-21T06:55:08.130Z,79.50
2019-03-21T06:56:08.148Z,79.60
2019-03-21T06:57:08.112Z,79.50
2019-03-21T06:58:08.103Z,78.95
2019-03-21T06:59:08.085Z,79.25
2019-03-21T07:00:08.078Z,78.75
2019-03-21T07:01:08.066Z,79.25
2019-03-21T07:02:08.073Z,79.25
2019-03-21T07:03:08.046Z,78.64
2019-03-21T07:04:08.056Z,79.05
2019-03-21T07:05:08.037Z,79.25
2019-03-21T07:06:08.013Z,79.36
2019-03-21T07:07:08.766Z,79.16
2019-03-21T07:08:07.989Z,79.16
2019-03-21T07:09:08.008Z,79.16
2019-03-21T07:10:07.970Z,78.81
2019-03-21T07:11:07.970Z,79.66
2019-03-21T07:12:07.971Z,78.09
2019-03-21T07:13:07.935Z,78.13
2019-03-21T07:14:07.923Z,78.81
2019-03-21T07:15:07.911Z,78.41
2019-03-21T07:16:09.430Z,78.34
2019-03-21T07:17:07.919Z,78.30
2019-03-21T07:18:07.887Z,78.71
2019-03-21T07:19:07.874Z,78.09
2019-03-21T07:20:07.861Z,77.89
2019-03-21T07:21:07.849Z,78.30
2019-03-21T07:22:07.858Z,78.91
2019-03-21T07:23:07.851Z,78.09
2019-03-21T07:24:07.825Z,77.69
2019-03-21T07:25:07.819Z,78.41
2019-03-21T07:26:07.795Z,77.79
2019-03-21T07:27:07.799Z,77.79
2019-03-21T07:28:07.776Z,78.00
2019-03-21T07:29:07.765Z,78.00
2019-03-21T07:30:07.753Z,77.38
2019-03-21T07:31:07.748Z,77.48
2019-03-21T07:32:07.745Z,77.65
2019-03-21T07:33:07.726Z,77.89
2019-03-21T07:34:10.082Z,77.34
2019-03-21T07:35:07.697Z,77.69
2019-03-21T07:36:07.689Z,77.69
2019-03-21T07:37:07.725Z,77.34
2019-03-21T07:38:07.669Z,77.75
2019-03-21T07:39:07.655Z,76.93
2019-03-21T07:40:07.646Z,76.87
2019-03-21T07:41:07.646Z,77.28
2019-03-21T07:42:07.623Z,77.79
2019-03-21T07:43:07.633Z,77.48
2019-03-21T07:44:07.631Z,76.97
2019-03-21T07:45:07.604Z,77.69
2019-03-21T07:46:07.579Z,77.18
2019-03-21T07:47:12.888Z,77.38
2019-03-21T07:48:08.583Z,77.38
2019-03-21T07:49:07.544Z,77.89
2019-03-21T07:50:07.566Z,77.69
2019-03-21T07:51:07.530Z,77.38
2019-03-21T07:52:07.524Z,77.59
2019-03-21T07:53:07.530Z,77.38
2019-03-21T07:54:07.504Z,77.59
2019-03-21T07:55:07.492Z,77.08
2019-03-21T07:56:07.499Z,77.79
2019-03-21T07:57:07.469Z,77.34
2019-03-21T07:58:07.488Z,77.55
2019-03-21T07:59:07.445Z,77.45
2019-03-21T08:00:07.443Z,77.25
2019-03-21T08:01:07.440Z,77.69
2019-03-21T08:02:07.413Z,77.69
2019-03-21T08:03:07.412Z,77.89
2019-03-21T08:04:07.400Z,77.59
2019-03-21T08:05:07.375Z,78.09
2019-03-21T08:06:07.370Z,77.65
2019-03-21T08:07:07.355Z,77.96
2019-03-21T08:08:07.356Z,77.96
2019-03-21T08:09:07.350Z,77.38
2019-03-21T08:10:07.334Z,77.48
2019-03-21T08:11:07.312Z,77.25
2019-03-21T08:12:07.302Z,77.59
2019-03-21T08:13:07.304Z,77.14
2019-03-21T08:14:07.287Z,77.25
2019-03-21T08:15:07.293Z,77.69
2019-03-21T08:16:07.261Z,77.48
2019-03-21T08:17:07.250Z,77.59
2019-03-21T08:18:07.256Z,77.14
2019-03-21T08:19:07.223Z,77.38
2019-03-21T08:20:07.216Z,77.25
2019-03-21T08:21:07.210Z,77.04
2019-03-21T08:22:07.343Z,77.14
2019-03-21T08:23:07.214Z,77.25
2019-03-21T08:24:07.186Z,77.65
2019-03-21T08:25:07.163Z,76.93
2019-03-21T08:26:07.157Z,77.14
2019-03-21T08:27:07.151Z,76.73
2019-03-21T08:28:07.194Z,76.22
2019-03-21T08:29:07.126Z,77.55
2019-03-21T08:30:07.111Z,77.65
2019-03-21T08:31:07.099Z,76.43
2019-03-21T08:32:07.087Z,76.93
2019-03-21T08:33:07.071Z,77.11
2019-03-21T08:34:07.087Z,77.14
2019-03-21T08:35:07.120Z,76.29
2019-03-21T08:36:07.053Z,76.84
2019-03-21T08:37:07.031Z,76.29
2019-03-21T08:38:07.034Z,76.32
2019-03-21T08:39:07.026Z,75.98
2019-03-21T08:40:07.007Z,76.09
2019-03-21T08:41:07.007Z,76.19
2019-03-21T08:42:06.978Z,76.50
2019-03-21T08:43:06.966Z,76.59
2019-03-21T08:44:06.985Z,75.54
2019-03-21T08:45:06.988Z,75.74
2019-03-21T08:46:06.941Z,76.15
2019-03-21T08:47:06.935Z,75.34
2019-03-21T08:48:06.917Z,75.64
2019-03-21T08:49:06.931Z,75.44
2019-03-21T08:50:06.905Z,75.74
2019-03-21T08:51:08.731Z,75.85
2019-03-21T08:52:06.882Z,75.40
2019-03-21T08:53:06.860Z,75.40
2019-03-21T08:54:06.863Z,75.20
2019-03-21T08:55:06.851Z,75.10
2019-03-21T08:56:06.825Z,75.30
2019-03-21T08:57:06.817Z,75.20
2019-03-21T08:58:06.806Z,74.58
2019-03-21T08:59:06.816Z,75.30
2019-03-21T09:00:06.792Z,75.30
2019-03-21T09:01:06.785Z,75.51
2019-03-21T09:02:06.758Z,74.99
2019-03-21T09:03:06.749Z,75.40
2019-03-21T09:04:06.751Z,75.40
2019-03-21T09:05:06.728Z,74.99
2019-03-21T09:06:06.717Z,74.76
2019-03-21T09:07:06.713Z,74.96
2019-03-21T09:08:06.754Z,75.06
2019-03-21T09:09:06.702Z,74.55
2019-03-21T09:10:07.990Z,74.76
2019-03-21T09:11:06.671Z,74.86
2019-03-21T09:12:06.680Z,74.82
2019-03-21T09:13:06.653Z,74.01
2019-03-21T09:14:06.647Z,73.80
2019-03-21T09:15:08.082Z,73.91
2019-03-21T09:16:06.624Z,73.06
2019-03-21T09:17:06.609Z,73.16
2019-03-21T09:18:06.593Z,72.75
2019-03-21T09:19:06.629Z,72.34
2019-03-21T09:20:06.570Z,72.01
2019-03-21T09:21:06.567Z,72.72
2019-03-21T09:22:06.568Z,72.01
2019-03-21T09:23:06.537Z,72.11
2019-03-21T09:24:06.522Z,71.91
2019-03-21T09:25:06.530Z,71.16
2019-03-21T09:26:06.504Z,71.67
2019-03-21T09:27:06.502Z,71.77
2019-03-21T09:28:06.483Z,71.36
2019-03-21T09:29:06.492Z,71.97
2019-03-21T09:30:06.489Z,72.08
2019-03-21T09:31:06.464Z,71.87
2019-03-21T09:32:06.470Z,71.77
2019-03-21T09:33:06.434Z,72.04
2019-03-21T09:34:06.416Z,70.92
2019-03-21T09:35:06.423Z,71.12
2019-03-21T09:36:06.442Z,70.99
2019-03-21T09:37:06.392Z,71.30
2019-03-21T09:38:06.387Z,70.59
2019-03-21T09:39:06.359Z,70.38
2019-03-21T09:40:06.389Z,70.08
2019-03-21T09:41:06.351Z,69.78
2019-03-21T09:42:06.342Z,70.25
2019-03-21T09:43:06.319Z,70.25
2019-03-21T09:44:06.321Z,69.43
2019-03-21T09:45:06.316Z,69.43
2019-03-21T09:46:06.301Z,69.74
2019-03-21T09:47:06.330Z,69.54
2019-03-21T09:48:06.268Z,69.71
2019-03-21T09:49:06.261Z,68.19
2019-03-21T09:50:06.270Z,69.81
2019-03-21T09:51:06.233Z,69.30
2019-03-21T09:52:06.224Z,68.90
2019-03-21T09:53:06.301Z,68.59
2019-03-21T09:54:09.934Z,69.20
2019-03-21T09:55:06.205Z,68.19
2019-03-21T09:56:06.188Z,67.98
2019-03-21T09:57:06.255Z,67.88
2019-03-21T09:58:06.162Z,68.32
2019-03-21T09:59:06.159Z,69.20
2019-03-21T10:00:06.201Z,68.79
2019-03-21T10:01:06.141Z,68.29
2019-03-21T10:02:06.123Z,67.88
2019-03-21T10:03:06.121Z,69.00
2019-03-21T10:04:06.098Z,67.58
2019-03-21T10:05:06.096Z,67.88
2019-03-21T10:06:06.075Z,68.26
2019-03-21T10:07:06.068Z,67.85
2019-03-21T10:08:06.049Z,67.75
2019-03-21T10:09:06.058Z,67.24
2019-03-21T10:10:06.077Z,67.44
2019-03-21T10:11:06.023Z,67.14
2019-03-21T10:12:06.023Z,67.00
2019-03-21T10:13:06.030Z,67.44
2019-03-21T10:14:05.986Z,66.91
2019-03-21T10:15:05.986Z,66.91
2019-03-21T10:16:05.990Z,66.70
2019-03-21T10:17:05.957Z,66.67
2019-03-21T10:18:05.964Z,67.00
2019-03-21T10:19:05.941Z,66.37
2019-03-21T10:20:05.929Z,66.57
2019-03-21T10:21:05.941Z,66.37
2019-03-21T10:22:05.922Z,66.67
2019-03-21T10:23:05.900Z,66.91
2019-03-21T10:24:05.892Z,66.67
2019-03-21T10:25:05.873Z,66.67
2019-03-21T10:26:05.889Z,66.37
2019-03-21T10:27:05.847Z,66.67
2019-03-21T10:28:05.872Z,67.08
2019-03-21T10:29:05.825Z,66.16
2019-03-21T10:30:05.818Z,66.06
2019-03-21T10:31:05.826Z,66.30
2019-03-21T10:32:13.965Z,66.16
2019-03-21T10:33:06.782Z,66.47
2019-03-21T10:34:05.775Z,66.67
2019-03-21T10:35:05.770Z,66.27
2019-03-21T10:36:05.770Z,66.27
2019-03-21T10:37:05.759Z,66.16
2019-03-21T10:38:05.732Z,65.66
2019-03-21T10:39:05.727Z,65.66
2019-03-21T10:40:05.715Z,65.86
2019-03-21T10:41:05.706Z,65.86
2019-03-21T10:42:05.697Z,65.45
2019-03-21T10:43:05.740Z,65.45
2019-03-21T10:44:05.666Z,65.76
2019-03-21T10:45:05.656Z,66.16
2019-03-21T10:46:05.657Z,65.96
2019-03-21T10:47:05.667Z,65.96
2019-03-21T10:48:05.626Z,65.66
2019-03-21T10:49:05.616Z,65.56
2019-03-21T10:50:05.639Z,65.96
2019-03-21T10:51:05.604Z,66.24
2019-03-21T10:52:05.590Z,66.16
2019-03-21T10:53:05.568Z,65.96
2019-03-21T10:54:05.557Z,66.06
2019-03-21T10:55:05.548Z,66.67
2019-03-21T10:56:05.592Z,66.47
2019-03-21T10:57:05.526Z,65.66
2019-03-21T10:58:05.522Z,66.47
2019-03-21T10:59:05.509Z,66.06
2019-03-21T11:00:05.491Z,66.16
2019-03-21T11:01:05.483Z,66.57
2019-03-21T11:02:07.596Z,65.96
2019-03-21T11:03:05.460Z,66.06
2019-03-21T11:04:05.461Z,65.93
2019-03-21T11:05:05.439Z,66.54
2019-03-21T11:06:05.436Z,65.62
2019-03-21T11:07:05.438Z,66.06
2019-03-21T11:08:05.454Z,66.13
2019-03-21T11:09:05.396Z,65.45
2019-03-21T11:10:05.388Z,66.30
2019-03-21T11:11:05.372Z,66.47
2019-03-21T11:12:05.392Z,66.27
2019-03-21T11:13:05.352Z,66.47
2019-03-21T11:14:05.343Z,65.86
2019-03-21T11:15:05.330Z,65.86
2019-03-21T11:16:05.320Z,66.50
2019-03-21T11:17:05.325Z,66.70
2019-03-21T11:18:05.302Z,67.00
2019-03-21T11:19:05.292Z,67.34
2019-03-21T11:20:05.286Z,67.03
2019-03-21T11:21:05.278Z,68.15
2019-03-21T11:22:06.639Z,67.44
2019-03-21T11:23:05.249Z,67.92
2019-03-21T11:24:05.237Z,68.26
2019-03-21T11:25:05.246Z,67.51
2019-03-21T11:26:05.213Z,68.15
2019-03-21T11:27:05.223Z,67.98
2019-03-21T11:28:05.194Z,67.85
2019-03-21T11:29:05.177Z,67.88
2019-03-21T11:30:15.611Z,67.68
2019-03-21T11:31:06.229Z,67.98
2019-03-21T11:32:05.162Z,68.39
2019-03-21T11:33:05.135Z,69.23
2019-03-21T11:34:05.192Z,68.70
2019-03-21T11:35:05.118Z,68.59
2019-03-21T11:36:05.111Z,68.73
2019-03-21T11:37:05.114Z,69.00
2019-03-21T11:38:05.091Z,68.49
2019-03-21T11:39:05.075Z,69.71
2019-03-21T11:40:05.067Z,68.79
2019-03-21T11:41:05.065Z,68.49
2019-03-21T11:42:05.067Z,68.79
2019-03-21T11:43:05.031Z,68.79
2019-03-21T11:44:05.038Z,67.98
2019-03-21T11:45:05.007Z,68.29
2019-03-21T11:46:04.996Z,68.08
2019-03-21T11:47:04.998Z,67.88
2019-03-21T11:48:04.974Z,68.29
2019-03-21T11:49:04.972Z,67.98
2019-03-21T11:50:04.969Z,68.59
2019-03-21T11:51:05.010Z,68.79
2019-03-21T11:52:04.957Z,69.10
2019-03-21T11:53:04.936Z,69.40
2019-03-21T11:54:04.928Z,68.79
2019-03-21T11:55:04.913Z,67.68
2019-03-21T11:56:04.910Z,67.68
2019-03-21T11:57:04.909Z,67.27
2019-03-21T11:58:04.884Z,67.98
2019-03-21T11:59:04.892Z,68.19
2019-03-21T12:00:04.854Z,68.29
2019-03-21T12:01:04.855Z,67.88
2019-03-21T12:02:04.830Z,67.68
2019-03-21T12:03:04.892Z,68.15
2019-03-21T12:04:04.816Z,67.85
2019-03-21T12:05:04.795Z,68.15
2019-03-21T12:06:04.790Z,68.05
2019-03-21T12:07:04.780Z,67.85
2019-03-21T12:08:04.783Z,67.14
2019-03-21T12:09:04.763Z,67.92
2019-03-21T12:10:04.755Z,67.00
2019-03-21T12:11:04.734Z,66.70
2019-03-21T12:12:04.718Z,67.41
2019-03-21T12:13:04.782Z,67.51
2019-03-21T12:14:04.696Z,67.00
2019-03-21T12:15:04.700Z,66.91
2019-03-21T12:16:04.683Z,66.09
2019-03-21T12:17:04.668Z,66.50
2019-03-21T12:18:04.678Z,67.00
2019-03-21T12:19:04.648Z,66.60
2019-03-21T12:20:04.693Z,66.30
2019-03-21T12:21:04.634Z,66.91
2019-03-21T12:22:04.606Z,67.21
2019-03-21T12:23:04.621Z,67.41
2019-03-21T12:24:04.588Z,66.60
2019-03-21T12:25:04.627Z,66.60
2019-03-21T12:26:04.572Z,67.21
2019-03-21T12:27:04.564Z,66.70
2019-03-21T12:28:04.590Z,66.91
2019-03-21T12:29:04.537Z,66.70
2019-03-21T12:30:04.523Z,67.41
2019-03-21T12:31:04.514Z,67.61
2019-03-21T12:32:04.537Z,66.80
2019-03-21T12:33:04.515Z,67.55
2019-03-21T12:34:04.485Z,67.24
2019-03-21T12:35:04.473Z,67.03
2019-03-21T12:36:04.459Z,67.92
2019-03-21T12:37:04.485Z,67.21
2019-03-21T12:38:04.459Z,67.34
2019-03-21T12:39:04.433Z,67.14
2019-03-21T12:40:04.428Z,67.24
2019-03-21T12:41:04.413Z,67.24
2019-03-21T12:42:04.402Z,67.51
2019-03-21T12:43:04.444Z,67.21
2019-03-21T12:44:04.388Z,67.65
2019-03-21T12:45:04.371Z,67.75
2019-03-21T12:46:04.379Z,67.24
2019-03-21T12:47:04.344Z,67.47
2019-03-21T12:48:04.349Z,67.85
2019-03-21T12:49:04.377Z,67.88
2019-03-21T12:50:04.307Z,67.88
2019-03-21T12:51:04.303Z,67.98
2019-03-21T12:52:04.300Z,68.39
2019-03-21T12:53:04.303Z,68.19
2019-03-21T12:54:04.271Z,68.59
2019-03-21T12:55:04.260Z,68.39
2019-03-21T12:56:04.269Z,69.10
2019-03-21T12:57:04.237Z,69.10
2019-03-21T12:58:04.254Z,67.98
2019-03-21T12:59:04.259Z,68.59
2019-03-21T13:00:04.215Z,68.49